Time;durP1;ratioP1;P1;durP2;ratioP2;P2;SDS_P1;SDS_P2;PMS_P1;PMS_P2;Temp;Humidity;BMP_temperature;BMP_pressure;BME280_temperature;BME280_humidity;BME280_pressure;Samples;Min_cycle;Max_cycle;Signal;HPM_P1;HPM_P2
2022/01/06 00:00:28;;;;;;;2.30;1.30;;;;;16.70;100198.00;;;;2079007;28;20224;-54
2022/01/06 00:01:28;;;;;;;1.67;1.15;;;;;16.70;100201.00;;;;2087689;28;20263;-54
2022/01/06 00:02:29;;;;;;;3.27;1.50;;;;;16.70;100211.00;;;;2086075;28;20224;-54
2022/01/06 00:03:31;;;;;;;2.80;1.30;;;;;16.70;100210.00;;;;2088266;28;20295;-54
2022/01/06 00:04:31;;;;;;;2.20;1.50;;;;;16.70;100211.00;;;;2088395;28;20692;-54
2022/01/06 00:05:31;;;;;;;2.90;1.20;;;;;16.70;100199.00;;;;2088306;28;20213;-54
2022/01/06 00:06:37;;;;;;;2.13;1.20;;;;;16.60;100207.00;;;;2088156;28;20220;-53
2022/01/06 00:07:38;;;;;;;2.92;1.60;;;;;16.70;100210.00;;;;2080407;28;20300;-54
2022/01/06 00:08:39;;;;;;;2.13;1.30;;;;;16.70;100202.00;;;;2087827;28;20562;-54
2022/01/06 00:09:39;;;;;;;2.08;1.70;;;;;16.70;100204.00;;;;2087878;28;20216;-54
2022/01/06 00:10:39;;;;;;;2.80;1.40;;;;;16.70;100209.00;;;;2087535;28;20723;-54
2022/01/06 00:11:40;;;;;;;2.37;1.40;;;;;16.70;100208.00;;;;2087494;28;20213;-54
2022/01/06 00:12:50;;;;;;;2.43;1.20;;;;;16.70;100212.00;;;;2087707;28;20231;-54
2022/01/06 00:24:00;;;;;;;2.50;1.45;;;;;16.70;100230.00;;;;2075974;28;20224;-54
2022/01/06 00:25:00;;;;;;;3.60;1.67;;;;;16.70;100223.00;;;;2088136;28;20244;-54
2022/01/06 00:26:01;;;;;;;3.03;1.20;;;;;16.70;100229.00;;;;2088194;28;20262;-54
2022/01/06 00:27:02;;;;;;;1.87;1.20;;;;;16.60;100228.00;;;;2084309;28;20212;-54
2022/01/06 00:28:02;;;;;;;2.80;1.60;;;;;16.60;100231.00;;;;2085900;28;20216;-54
2022/01/06 00:29:02;;;;;;;2.37;1.50;;;;;16.70;100244.00;;;;2087584;28;20282;-53
2022/01/06 00:30:03;;;;;;;1.77;1.20;;;;;16.70;100240.00;;;;2086944;28;20213;-54
2022/01/06 00:31:03;;;;;;;2.13;1.40;;;;;16.70;100244.00;;;;2087803;28;20213;-54
2022/01/06 00:32:04;;;;;;;3.57;1.40;;;;;16.70;100238.00;;;;2087599;28;20248;-54
2022/01/06 00:33:04;;;;;;;3.23;1.60;;;;;16.70;100238.00;;;;2087766;28;20308;-54
2022/01/06 00:34:08;;;;;;;2.27;1.27;;;;;16.70;100237.00;;;;2087522;28;20213;-54
2022/01/06 00:35:09;;;;;;;1.80;1.30;;;;;16.60;100229.00;;;;2087274;28;20273;-54
2022/01/06 00:36:09;;;;;;;3.40;1.60;;;;;16.70;100237.00;;;;2087408;28;20757;-54
2022/01/06 00:37:09;;;;;;;2.50;1.50;;;;;16.70;100235.00;;;;2085206;28;20209;-54
2022/01/06 00:38:10;;;;;;;2.10;1.20;;;;;16.70;100224.00;;;;2087552;28;20208;-53
2022/01/06 00:39:10;;;;;;;1.53;1.23;;;;;16.70;100233.00;;;;2087483;28;20217;-54
2022/01/06 00:40:11;;;;;;;2.60;1.47;;;;;16.70;100228.00;;;;2087344;28;20220;-54
2022/01/06 00:41:11;;;;;;;1.70;1.23;;;;;16.70;100234.00;;;;2087863;28;20213;-54
2022/01/06 00:42:13;;;;;;;2.77;1.40;;;;;16.70;100230.00;;;;2084889;28;20619;-54
2022/01/06 00:43:13;;;;;;;3.42;1.55;;;;;16.60;100231.00;;;;2088062;28;20228;-56
2022/01/06 00:44:14;;;;;;;3.33;1.37;;;;;16.70;100227.00;;;;2087282;28;20212;-55
2022/01/06 00:45:14;;;;;;;2.13;1.40;;;;;16.60;100235.00;;;;2087601;28;20219;-54
2022/01/06 00:46:15;;;;;;;2.70;1.70;;;;;16.70;100230.00;;;;2087522;28;20208;-54
2022/01/06 00:47:15;;;;;;;2.87;1.77;;;;;16.70;100233.00;;;;2085279;28;20208;-54
2022/01/06 00:48:15;;;;;;;3.30;1.83;;;;;16.70;100241.00;;;;2087587;28;20208;-54
2022/01/06 00:49:20;;;;;;;2.83;1.60;;;;;16.70;100237.00;;;;2088118;28;20216;-54
2022/01/06 00:50:20;;;;;;;3.05;1.83;;;;;16.70;100247.00;;;;2087881;28;20703;-54
2022/01/06 00:51:21;;;;;;;2.57;1.53;;;;;16.70;100241.00;;;;2087866;28;20213;-54
2022/01/06 00:52:21;;;;;;;2.43;1.67;;;;;16.70;100248.00;;;;2087551;28;20221;-53
2022/01/06 00:53:21;;;;;;;2.10;1.33;;;;;16.60;100242.00;;;;2087936;28;20251;-54
2022/01/06 00:54:22;;;;;;;2.60;1.53;;;;;16.70;100243.00;;;;2087914;28;20204;-54
2022/01/06 00:55:22;;;;;;;1.97;1.23;;;;;16.70;100238.00;;;;2087940;28;20247;-54
2022/01/06 00:56:22;;;;;;;3.23;1.10;;;;;16.70;100242.00;;;;2087650;28;20221;-54
2022/01/06 00:57:23;;;;;;;1.40;1.13;;;;;16.70;100246.00;;;;2086967;28;20228;-54
2022/01/06 00:58:23;;;;;;;2.40;1.40;;;;;16.70;100250.00;;;;2086955;28;20225;-54
2022/01/06 00:59:23;;;;;;;2.53;1.50;;;;;16.70;100244.00;;;;2088269;28;20228;-54
2022/01/06 01:00:27;;;;;;;2.10;1.20;;;;;16.70;100246.00;;;;2087828;28;20245;-54
2022/01/06 01:01:27;;;;;;;2.13;1.60;;;;;16.70;100254.00;;;;2086934;28;20730;-54
2022/01/06 01:02:30;;;;;;;1.90;1.10;;;;;16.70;100250.00;;;;2087648;28;20212;-54
2022/01/06 01:03:30;;;;;;;1.83;1.33;;;;;16.60;100263.00;;;;2087947;28;20221;-54
2022/01/06 01:04:31;;;;;;;2.40;1.47;;;;;16.70;100254.00;;;;2087922;28;20201;-53
2022/01/06 01:05:31;;;;;;;3.00;1.60;;;;;16.70;100258.00;;;;2087907;28;20220;-54
2022/01/06 01:06:32;;;;;;;2.53;1.40;;;;;16.60;100253.00;;;;2087805;28;20680;-54
2022/01/06 01:07:32;;;;;;;2.00;1.20;;;;;16.60;100262.00;;;;2085060;28;20526;-54
2022/01/06 01:08:34;;;;;;;2.30;1.33;;;;;16.70;100257.00;;;;2087392;28;20193;-53
2022/01/06 01:09:34;;;;;;;1.50;1.20;;;;;16.70;100257.00;;;;2087277;28;20224;-53
2022/01/06 01:10:35;;;;;;;2.07;1.20;;;;;16.70;100257.00;;;;2083063;28;20208;-54
2022/01/06 01:11:35;;;;;;;2.60;1.47;;;;;16.70;100261.00;;;;2095332;28;20242;-53
2022/01/06 01:12:35;;;;;;;2.60;1.37;;;;;16.70;100256.00;;;;2078993;28;20213;-54
2022/01/06 01:13:54;;;;;;;3.90;1.60;;;;;16.60;100258.00;;;;2095068;28;20286;-54
2022/01/06 01:15:04;;;;;;;1.88;1.13;;;;;16.70;100261.00;;;;2088671;28;20216;-54
2022/01/06 01:16:22;;;;;;;3.15;1.20;;;;;16.60;100262.00;;;;2079632;28;20631;-54
2022/01/06 01:17:25;;;;;;;2.13;1.55;;;;;16.60;100256.00;;;;2087077;28;20251;-54
2022/01/06 01:18:25;;;;;;;4.70;2.10;;;;;16.60;100264.00;;;;2078162;28;20305;-54
2022/01/06 01:19:26;;;;;;;3.07;1.67;;;;;16.70;100270.00;;;;2079275;28;20244;-54
2022/01/06 01:20:27;;;;;;;2.90;1.75;;;;;16.60;100271.00;;;;2087576;28;20209;-54
2022/01/06 01:21:27;;;;;;;2.67;1.50;;;;;16.70;100271.00;;;;2087811;28;20262;-54
2022/01/06 01:22:28;;;;;;;2.70;1.43;;;;;16.60;100281.00;;;;2084540;28;20295;-54
2022/01/06 01:23:28;;;;;;;1.97;1.10;;;;;16.60;100275.00;;;;2077499;28;20220;-54
2022/01/06 01:24:29;;;;;;;3.10;1.37;;;;;16.60;100275.00;;;;2087887;28;20221;-54
2022/01/06 01:25:29;;;;;;;3.10;1.83;;;;;16.70;100277.00;;;;2087931;28;20588;-54
2022/01/06 01:26:29;;;;;;;1.90;1.40;;;;;16.60;100274.00;;;;2087702;28;20557;-54
2022/01/06 01:27:35;;;;;;;1.27;1.13;;;;;16.70;100271.00;;;;2087912;28;20735;-54
2022/01/06 01:28:43;;;;;;;1.80;1.30;;;;;16.60;100276.00;;;;2087904;28;20568;-53
2022/01/06 01:30:03;;;;;;;2.05;1.02;;;;;16.70;100279.00;;;;2085243;28;20279;-54
2022/01/06 01:31:48;;;;;;;2.25;1.38;;;;;16.70;100275.00;;;;2084838;28;20244;-54
2022/01/06 01:32:33;;;;;;;2.30;1.42;;;;;16.70;100276.00;;;;2081823;28;20216;-54
2022/01/06 01:33:37;;;;;;;2.08;1.38;;;;;16.70;100273.00;;;;2087554;28;20252;-53
2022/01/06 01:34:40;;;;;;;4.10;1.60;;;;;16.70;100281.00;;;;2089097;28;20370;-54
2022/01/06 01:35:41;;;;;;;2.72;1.70;;;;;16.70;100284.00;;;;2089370;28;20213;-54
2022/01/06 01:36:43;;;;;;;2.75;1.30;;;;;16.70;100282.00;;;;2089313;28;20213;-54
2022/01/06 01:37:43;;;;;;;2.35;1.50;;;;;16.70;100281.00;;;;2081840;28;20244;-54
2022/01/06 01:38:43;;;;;;;3.00;1.70;;;;;16.70;100276.00;;;;2088834;28;20759;-54
2022/01/06 01:39:44;;;;;;;2.30;1.60;;;;;16.70;100287.00;;;;2089149;28;20604;-53
2022/01/06 01:40:44;;;;;;;2.57;1.60;;;;;16.70;100286.00;;;;2088777;28;20282;-54
2022/01/06 01:41:44;;;;;;;1.93;1.43;;;;;16.70;100284.00;;;;2089172;28;20236;-54
2022/01/06 01:42:45;;;;;;;3.57;1.50;;;;;16.80;100286.00;;;;2086767;28;20300;-53
2022/01/06 01:43:48;;;;;;;3.60;1.40;;;;;16.80;100283.00;;;;2089360;28;20209;-54
2022/01/06 01:44:50;;;;;;;2.05;1.40;;;;;16.80;100290.00;;;;2088563;28;20288;-54
2022/01/06 01:45:56;;;;;;;3.75;1.55;;;;;16.80;100294.00;;;;2088711;28;20572;-53
2022/01/06 01:47:03;;;;;;;3.90;1.30;;;;;16.80;100293.00;;;;2088928;28;20687;-54
2022/01/06 01:48:06;;;;;;;2.47;1.80;;;;;16.80;100297.00;;;;2088612;28;20243;-54
2022/01/06 01:50:16;;;;;;;2.65;1.40;;;;;16.80;100287.00;;;;2088925;28;20273;-54
2022/01/06 01:51:16;;;;;;;3.10;1.70;;;;;16.80;100303.00;;;;2089142;28;20220;-54
2022/01/06 01:52:17;;;;;;;2.13;1.40;;;;;16.80;100295.00;;;;2088398;28;20429;-54
2022/01/06 01:53:17;;;;;;;2.73;1.47;;;;;16.90;100293.00;;;;2089361;28;20216;-54
2022/01/06 01:54:17;;;;;;;3.17;1.53;;;;;16.90;100291.00;;;;2089287;28;20213;-54
2022/01/06 01:55:24;;;;;;;2.70;1.60;;;;;16.90;100301.00;;;;2089312;28;20220;-54
2022/01/06 01:56:24;;;;;;;2.38;1.42;;;;;16.90;100299.00;;;;2088900;28;20743;-54
2022/01/06 01:57:25;;;;;;;1.93;1.33;;;;;16.90;100303.00;;;;2086668;28;20252;-54
2022/01/06 01:58:26;;;;;;;2.75;1.65;;;;;16.90;100298.00;;;;2084709;28;20290;-54
2022/01/06 01:59:26;;;;;;;2.50;1.60;;;;;16.90;100307.00;;;;2088298;28;20258;-54
2022/01/06 02:00:29;;;;;;;2.47;1.33;;;;;16.90;100305.00;;;;2086984;28;20217;-54
2022/01/06 02:01:29;;;;;;;1.75;1.20;;;;;16.90;100303.00;;;;2088760;28;20316;-55
2022/01/06 02:02:30;;;;;;;2.53;1.57;;;;;16.90;100305.00;;;;2085400;28;20278;-54
2022/01/06 02:03:30;;;;;;;2.20;1.53;;;;;16.90;100307.00;;;;2088527;28;20237;-54
2022/01/06 02:04:31;;;;;;;4.57;1.80;;;;;16.90;100315.00;;;;2088616;28;20210;-54
2022/01/06 02:05:31;;;;;;;3.17;1.70;;;;;16.90;100312.00;;;;2088686;28;20240;-54
2022/01/06 02:06:32;;;;;;;3.50;1.50;;;;;16.90;100305.00;;;;2084600;28;20250;-53
2022/01/06 02:07:33;;;;;;;4.17;1.57;;;;;16.90;100312.00;;;;2088668;28;20270;-55
2022/01/06 02:08:33;;;;;;;3.10;1.58;;;;;16.90;100306.00;;;;2088700;28;20668;-54
2022/01/06 02:09:34;;;;;;;2.90;1.50;;;;;16.90;100308.00;;;;2088054;28;20213;-54
2022/01/06 02:10:35;;;;;;;2.93;1.70;;;;;16.90;100304.00;;;;2088553;28;20255;-54
2022/01/06 02:11:35;;;;;;;3.15;1.63;;;;;16.90;100310.00;;;;2089212;28;20205;-54
2022/01/06 02:12:37;;;;;;;2.07;1.53;;;;;16.90;100307.00;;;;2088305;28;20215;-54
2022/01/06 02:13:45;;;;;;;3.45;2.08;;;;;16.90;100303.00;;;;2080195;28;20649;-54
2022/01/06 02:14:45;;;;;;;2.78;1.90;;;;;16.90;100305.00;;;;2085890;28;20263;-54
2022/01/06 02:15:46;;;;;;;3.20;1.57;;;;;16.90;100306.00;;;;2088724;28;20274;-54
2022/01/06 02:16:46;;;;;;;3.30;1.50;;;;;16.90;100306.00;;;;2088718;28;20220;-54
2022/01/06 02:17:47;;;;;;;3.30;1.67;;;;;16.90;100302.00;;;;2087994;28;20224;-54
2022/01/06 02:18:48;;;;;;;3.50;1.50;;;;;16.90;100306.00;;;;2087680;28;20229;-54
2022/01/06 02:19:55;;;;;;;2.35;1.65;;;;;16.90;100308.00;;;;2087761;28;21094;-54
2022/01/06 02:20:56;;;;;;;2.72;1.65;;;;;16.90;100306.00;;;;2088800;28;20212;-54
2022/01/06 02:21:56;;;;;;;3.97;1.43;;;;;16.90;100310.00;;;;2089108;28;20305;-54
2022/01/06 02:22:57;;;;;;;1.90;1.30;;;;;16.90;100312.00;;;;2085952;28;20243;-54
2022/01/06 02:23:58;;;;;;;2.40;1.83;;;;;16.90;100310.00;;;;2089147;28;20232;-54
2022/01/06 02:25:10;;;;;;;3.10;1.30;;;;;16.90;100310.00;;;;2088993;28;20208;-54
2022/01/06 02:26:10;;;;;;;3.13;1.80;;;;;16.90;100317.00;;;;2088018;28;20669;-54
2022/01/06 02:27:11;;;;;;;2.90;1.40;;;;;16.90;100310.00;;;;2086086;28;20213;-54
2022/01/06 02:28:11;;;;;;;3.37;1.97;;;;;16.90;100309.00;;;;2088624;28;20247;-54
2022/01/06 02:29:11;;;;;;;2.77;1.63;;;;;16.90;100317.00;;;;2088823;28;20205;-54
2022/01/06 02:30:12;;;;;;;3.00;1.67;;;;;16.90;100320.00;;;;2089012;28;20303;-54
2022/01/06 02:31:12;;;;;;;3.07;1.70;;;;;16.90;100317.00;;;;2087844;28;20294;-54
2022/01/06 02:32:16;;;;;;;3.53;1.40;;;;;16.90;100317.00;;;;2074878;28;20209;-53
2022/01/06 02:33:17;;;;;;;2.40;1.58;;;;;16.90;100320.00;;;;2088518;28;20631;-54
2022/01/06 02:34:17;;;;;;;2.67;1.73;;;;;16.90;100314.00;;;;2088514;28;20217;-53
2022/01/06 02:35:20;;;;;;;2.30;1.40;;;;;16.90;100340.00;;;;2088041;28;20482;-54
2022/01/06 02:36:20;;;;;;;2.58;1.55;;;;;16.90;100331.00;;;;2088548;28;20209;-54
2022/01/06 02:37:20;;;;;;;2.20;1.50;;;;;16.90;100335.00;;;;2080492;28;20902;-54
2022/01/06 02:38:21;;;;;;;3.80;1.87;;;;;16.90;100335.00;;;;2095870;28;20216;-53
2022/01/06 02:39:21;;;;;;;3.23;1.53;;;;;16.90;100334.00;;;;2093890;28;20273;-54
2022/01/06 02:40:23;;;;;;;3.13;1.50;;;;;16.90;100335.00;;;;2088327;28;20213;-54
2022/01/06 02:41:23;;;;;;;3.30;1.65;;;;;16.90;100334.00;;;;2087364;28;20241;-54
2022/01/06 02:42:24;;;;;;;2.20;1.47;;;;;17.00;100333.00;;;;2088033;28;20213;-54
2022/01/06 02:43:25;;;;;;;3.35;1.50;;;;;17.00;100335.00;;;;2088350;28;20211;-54
2022/01/06 02:44:26;;;;;;;3.80;1.60;;;;;17.00;100335.00;;;;2088345;28;20223;-54
2022/01/06 02:45:27;;;;;;;2.75;1.50;;;;;16.90;100342.00;;;;2087275;28;20221;-54
2022/01/06 02:46:27;;;;;;;3.83;1.85;;;;;16.90;100341.00;;;;2087587;28;20232;-53
2022/01/06 02:47:28;;;;;;;4.03;1.60;;;;;16.90;100338.00;;;;2087690;28;20221;-54
2022/01/06 02:48:28;;;;;;;2.53;1.50;;;;;16.90;100342.00;;;;2088104;28;20216;-54
2022/01/06 02:49:28;;;;;;;3.40;1.73;;;;;16.90;100346.00;;;;2088317;28;20225;-54
2022/01/06 02:50:29;;;;;;;3.00;1.47;;;;;16.90;100346.00;;;;2088477;28;20216;-54
2022/01/06 02:51:29;;;;;;;4.53;1.43;;;;;16.90;100346.00;;;;2088912;28;20232;-54
2022/01/06 02:52:29;;;;;;;2.17;1.30;;;;;16.90;100346.00;;;;2085044;28;20239;-54
2022/01/06 02:53:30;;;;;;;2.47;1.60;;;;;16.90;100346.00;;;;2081246;28;20209;-54
2022/01/06 02:54:30;;;;;;;2.83;1.67;;;;;16.90;100350.00;;;;2092303;28;20215;-54
2022/01/06 02:55:31;;;;;;;2.27;1.20;;;;;16.90;100347.00;;;;2076574;28;20205;-54
2022/01/06 02:56:32;;;;;;;2.33;1.20;;;;;16.90;100349.00;;;;2088105;28;20295;-54
2022/01/06 02:57:32;;;;;;;2.45;1.55;;;;;16.90;100343.00;;;;2079304;28;20213;-54
2022/01/06 02:58:33;;;;;;;3.10;1.50;;;;;16.90;100346.00;;;;2080378;28;20591;-54
2022/01/06 02:59:33;;;;;;;4.00;2.00;;;;;16.90;100351.00;;;;2088222;28;20673;-54
2022/01/06 03:00:37;;;;;;;3.00;1.60;;;;;16.90;100341.00;;;;2088365;28;20672;-54
2022/01/06 03:01:41;;;;;;;3.22;1.70;;;;;16.90;100356.00;;;;2088805;28;20698;-54
2022/01/06 03:02:43;;;;;;;3.40;1.70;;;;;16.90;100352.00;;;;2086346;28;20247;-55
2022/01/06 03:03:43;;;;;;;2.47;1.63;;;;;16.90;100358.00;;;;2088130;28;20240;-54
2022/01/06 03:04:43;;;;;;;2.67;1.43;;;;;16.90;100355.00;;;;2088297;28;20217;-54
2022/01/06 03:05:44;;;;;;;2.07;1.47;;;;;16.90;100353.00;;;;2088457;28;20270;-54
2022/01/06 03:06:44;;;;;;;1.73;1.20;;;;;16.90;100355.00;;;;2088005;28;20299;-54
2022/01/06 03:07:45;;;;;;;2.40;1.70;;;;;16.90;100360.00;;;;2086188;28;20704;-54
2022/01/06 03:08:45;;;;;;;2.00;1.47;;;;;16.90;100352.00;;;;2088306;28;20641;-54
2022/01/06 03:09:53;;;;;;;2.97;1.73;;;;;16.90;100356.00;;;;2088200;28;20979;-54
2022/01/06 03:10:54;;;;;;;2.53;1.55;;;;;16.90;100360.00;;;;2087524;28;20209;-54
2022/01/06 03:11:55;;;;;;;2.65;1.70;;;;;16.90;100363.00;;;;2088085;28;20931;-54
2022/01/06 03:12:55;;;;;;;3.27;1.73;;;;;16.90;100361.00;;;;2088051;28;20213;-54
2022/01/06 03:13:56;;;;;;;2.33;1.63;;;;;17.00;100369.00;;;;2088281;28;20232;-54
2022/01/06 03:14:56;;;;;;;4.30;1.90;;;;;16.90;100367.00;;;;2088269;28;20213;-54
2022/01/06 03:15:57;;;;;;;2.70;1.30;;;;;16.90;100369.00;;;;2088213;28;20692;-53
2022/01/06 03:16:57;;;;;;;2.67;1.57;;;;;16.90;100369.00;;;;2087806;28;20588;-54
2022/01/06 03:17:57;;;;;;;3.07;1.70;;;;;16.90;100364.00;;;;2083616;28;20470;-54
2022/01/06 03:18:58;;;;;;;2.27;1.30;;;;;16.90;100363.00;;;;2096106;28;20285;-54
2022/01/06 03:19:58;;;;;;;2.27;1.70;;;;;16.90;100368.00;;;;2090631;28;20220;-54
2022/01/06 03:20:58;;;;;;;2.60;1.63;;;;;16.90;100369.00;;;;2088333;28;20224;-54
2022/01/06 03:21:59;;;;;;;2.40;1.57;;;;;16.90;100360.00;;;;2087180;28;20244;-54
2022/01/06 03:22:59;;;;;;;4.30;1.93;;;;;16.90;100371.00;;;;2083486;28;20224;-54
2022/01/06 03:23:59;;;;;;;3.80;2.23;;;;;16.90;100370.00;;;;2088421;28;20217;-54
2022/01/06 03:25:00;;;;;;;2.70;1.53;;;;;16.90;100372.00;;;;2088691;28;20274;-54
2022/01/06 03:26:00;;;;;;;3.37;2.03;;;;;16.90;100376.00;;;;2088547;28;20217;-54
2022/01/06 03:27:00;;;;;;;2.63;1.43;;;;;16.90;100374.00;;;;2088484;28;20585;-53
2022/01/06 03:28:01;;;;;;;3.17;1.67;;;;;16.90;100375.00;;;;2082717;28;20221;-54
2022/01/06 03:29:01;;;;;;;2.30;1.63;;;;;16.90;100386.00;;;;2088269;28;20228;-53
2022/01/06 03:30:03;;;;;;;3.43;1.63;;;;;16.90;100375.00;;;;2088003;28;20217;-54
2022/01/06 03:31:03;;;;;;;4.63;1.92;;;;;16.90;100370.00;;;;2087922;28;20213;-54
2022/01/06 03:32:04;;;;;;;2.90;1.40;;;;;16.90;100377.00;;;;2088452;28;20237;-54
2022/01/06 03:33:04;;;;;;;2.90;1.50;;;;;16.90;100384.00;;;;2081597;28;20227;-54
2022/01/06 03:34:05;;;;;;;2.93;1.97;;;;;16.90;100377.00;;;;2083837;28;20229;-53
2022/01/06 03:35:05;;;;;;;4.87;1.70;;;;;16.90;100375.00;;;;2088516;28;21727;-53
2022/01/06 03:36:06;;;;;;;2.40;1.83;;;;;16.90;100379.00;;;;2088506;28;20220;-54
2022/01/06 03:37:06;;;;;;;2.90;1.33;;;;;16.90;100379.00;;;;2088472;28;20338;-54
2022/01/06 03:38:06;;;;;;;1.90;1.37;;;;;16.90;100378.00;;;;2083783;28;20216;-54
2022/01/06 03:39:07;;;;;;;3.10;2.07;;;;;16.90;100375.00;;;;2095678;28;20227;-54
2022/01/06 03:40:08;;;;;;;2.37;1.70;;;;;16.90;100378.00;;;;2089509;28;20239;-54
2022/01/06 03:41:08;;;;;;;3.08;1.83;;;;;16.90;100377.00;;;;2083934;28;20212;-54
2022/01/06 03:42:09;;;;;;;2.50;1.63;;;;;16.90;100388.00;;;;2081078;28;20208;-54
2022/01/06 03:43:09;;;;;;;2.90;1.95;;;;;16.90;100381.00;;;;2089931;28;20259;-54
2022/01/06 03:44:10;;;;;;;4.00;1.67;;;;;16.90;100383.00;;;;2068526;28;20213;-54
2022/01/06 03:45:13;;;;;;;3.23;1.43;;;;;16.90;100377.00;;;;2088242;28;20223;-54
2022/01/06 03:46:13;;;;;;;4.80;2.13;;;;;16.90;100387.00;;;;2087679;28;20216;-54
2022/01/06 03:47:14;;;;;;;2.47;1.50;;;;;16.90;100380.00;;;;2087937;28;20223;-54
2022/01/06 03:48:14;;;;;;;3.50;1.90;;;;;16.90;100385.00;;;;2088019;28;20209;-54
2022/01/06 03:49:14;;;;;;;2.77;1.70;;;;;16.90;100388.00;;;;2084268;28;20255;-54
2022/01/06 03:50:15;;;;;;;2.60;1.40;;;;;16.90;100382.00;;;;2087897;28;20315;-54
2022/01/06 03:51:16;;;;;;;2.70;1.50;;;;;16.90;100386.00;;;;2087560;28;20209;-53
2022/01/06 03:52:16;;;;;;;3.15;1.77;;;;;16.90;100393.00;;;;2078350;28;20213;-54
2022/01/06 03:53:17;;;;;;;3.33;1.90;;;;;16.90;100389.00;;;;2085113;28;20215;-54
2022/01/06 03:54:17;;;;;;;4.00;1.60;;;;;16.90;100389.00;;;;2087569;28;20204;-54
2022/01/06 03:55:18;;;;;;;3.10;1.53;;;;;16.90;100391.00;;;;2088095;28;20258;-53
2022/01/06 03:56:18;;;;;;;3.47;1.50;;;;;16.90;100393.00;;;;2088004;28;20580;-53
2022/01/06 03:57:19;;;;;;;4.10;1.77;;;;;16.90;100388.00;;;;2088340;28;20455;-54
2022/01/06 03:58:19;;;;;;;2.63;1.40;;;;;16.90;100391.00;;;;2084451;28;20571;-54
2022/01/06 03:59:19;;;;;;;3.43;1.57;;;;;16.90;100391.00;;;;2087646;28;20321;-53
2022/01/06 04:00:22;;;;;;;3.07;1.80;;;;;16.90;100391.00;;;;2086795;28;20220;-54
2022/01/06 04:01:23;;;;;;;3.03;1.70;;;;;16.90;100393.00;;;;2086803;28;20213;-54
2022/01/06 04:02:23;;;;;;;2.03;1.30;;;;;16.90;100383.00;;;;2084466;28;20223;-54
2022/01/06 04:03:23;;;;;;;3.23;1.80;;;;;16.90;100395.00;;;;2087913;28;20205;-54
2022/01/06 04:04:24;;;;;;;2.27;1.27;;;;;16.90;100396.00;;;;2087926;28;20244;-54
2022/01/06 04:05:24;;;;;;;3.10;1.80;;;;;16.90;100394.00;;;;2087632;28;20209;-54
2022/01/06 04:06:25;;;;;;;2.63;1.50;;;;;16.90;100393.00;;;;2087812;28;20238;-54
2022/01/06 04:07:25;;;;;;;4.07;2.37;;;;;16.90;100396.00;;;;2085296;28;20224;-54
2022/01/06 04:08:25;;;;;;;3.70;1.77;;;;;16.90;100388.00;;;;2087746;28;20213;-54
2022/01/06 04:09:25;;;;;;;2.80;1.50;;;;;16.90;100394.00;;;;2087647;28;20614;-54
2022/01/06 04:10:26;;;;;;;2.40;1.60;;;;;16.90;100395.00;;;;2087501;28;20658;-54
2022/01/06 04:11:26;;;;;;;3.83;1.93;;;;;16.90;100391.00;;;;2087704;28;20770;-53
2022/01/06 04:12:27;;;;;;;3.10;1.77;;;;;16.90;100392.00;;;;2075852;28;20217;-55
2022/01/06 04:13:27;;;;;;;4.57;1.80;;;;;16.90;100400.00;;;;2083287;28;20205;-54
2022/01/06 04:14:28;;;;;;;3.50;1.80;;;;;16.90;100389.00;;;;2083434;28;20255;-54
2022/01/06 04:15:28;;;;;;;2.17;1.37;;;;;16.90;100405.00;;;;2087725;28;20566;-54
2022/01/06 04:16:30;;;;;;;4.17;1.90;;;;;16.90;100407.00;;;;2087701;28;20688;-54
2022/01/06 04:17:30;;;;;;;2.70;1.80;;;;;16.90;100412.00;;;;2087697;28;20213;-54
2022/01/06 04:18:30;;;;;;;4.03;1.90;;;;;16.90;100412.00;;;;2087626;28;20672;-54
2022/01/06 04:19:31;;;;;;;1.83;1.23;;;;;16.90;100417.00;;;;2087806;28;20716;-54
2022/01/06 04:20:31;;;;;;;2.80;1.87;;;;;16.90;100412.00;;;;2087697;28;20205;-54
2022/01/06 04:21:31;;;;;;;3.10;1.73;;;;;16.90;100424.00;;;;2087523;28;20216;-54
2022/01/06 04:22:32;;;;;;;5.13;1.90;;;;;16.90;100417.00;;;;2085207;28;20212;-54
2022/01/06 04:23:33;;;;;;;3.10;1.50;;;;;16.90;100424.00;;;;2087931;28;20205;-54
2022/01/06 04:24:34;;;;;;;2.22;1.45;;;;;16.90;100422.00;;;;2088112;28;20242;-54
2022/01/06 04:25:34;;;;;;;2.93;1.73;;;;;16.90;100428.00;;;;2088197;28;20676;-54
2022/01/06 04:26:34;;;;;;;2.20;1.47;;;;;16.80;100423.00;;;;2088125;28;20491;-54
2022/01/06 04:27:35;;;;;;;2.77;1.73;;;;;16.90;100421.00;;;;2085678;28;20213;-54
2022/01/06 04:28:36;;;;;;;3.40;1.70;;;;;16.90;100420.00;;;;2078040;28;20240;-54
2022/01/06 04:29:37;;;;;;;2.45;1.67;;;;;16.90;100417.00;;;;2086944;28;20242;-54
2022/01/06 04:30:37;;;;;;;3.77;1.60;;;;;16.60;100428.00;;;;2085174;28;20290;-54
2022/01/06 04:31:38;;;;;;;3.13;1.83;;;;;16.90;100420.00;;;;2088154;28;20221;-54
2022/01/06 04:32:38;;;;;;;4.03;2.07;;;;;16.90;100419.00;;;;2083931;28;20681;-54
2022/01/06 04:33:38;;;;;;;2.27;1.53;;;;;16.80;100416.00;;;;2087659;28;20343;-53
2022/01/06 04:34:39;;;;;;;3.53;1.60;;;;;16.90;100424.00;;;;2087706;28;20212;-54
2022/01/06 04:35:39;;;;;;;3.23;1.73;;;;;16.90;100420.00;;;;2087787;28;20259;-54
2022/01/06 04:36:46;;;;;;;2.70;1.50;;;;;16.90;100420.00;;;;2087308;28;20217;-54
2022/01/06 04:37:46;;;;;;;1.75;1.50;;;;;16.90;100426.00;;;;2084165;28;20723;-53
2022/01/06 04:38:47;;;;;;;4.33;2.00;;;;;16.90;100428.00;;;;2087444;28;20260;-54
2022/01/06 04:39:47;;;;;;;2.80;1.90;;;;;16.90;100425.00;;;;2083619;28;20648;-54
2022/01/06 04:40:48;;;;;;;2.60;1.40;;;;;16.80;100427.00;;;;2084438;28;20228;-54
2022/01/06 04:41:48;;;;;;;2.30;1.20;;;;;16.90;100430.00;;;;2080281;28;20229;-54
2022/01/06 04:42:48;;;;;;;3.43;1.80;;;;;16.90;100438.00;;;;2080395;28;20256;-53
2022/01/06 04:43:49;;;;;;;2.50;1.63;;;;;16.90;100443.00;;;;2086811;28;20346;-54
2022/01/06 04:44:49;;;;;;;3.03;1.90;;;;;16.90;100435.00;;;;2086786;28;20229;-54
2022/01/06 04:45:49;;;;;;;2.40;1.43;;;;;16.90;100439.00;;;;2087647;28;20220;-54
2022/01/06 04:46:50;;;;;;;2.40;1.30;;;;;16.90;100438.00;;;;2087533;28;20225;-53
2022/01/06 04:47:50;;;;;;;3.60;1.70;;;;;16.90;100442.00;;;;2085383;28;20221;-54
2022/01/06 04:48:50;;;;;;;3.33;1.53;;;;;16.80;100435.00;;;;2088172;28;20760;-54
2022/01/06 04:49:51;;;;;;;2.57;1.20;;;;;16.90;100436.00;;;;2088059;28;20223;-54
2022/01/06 04:50:51;;;;;;;3.93;1.60;;;;;16.90;100439.00;;;;2087886;28;20216;-54
2022/01/06 04:51:51;;;;;;;2.97;1.57;;;;;16.90;100444.00;;;;2088083;28;20270;-54
2022/01/06 04:52:52;;;;;;;2.97;1.50;;;;;16.90;100438.00;;;;2085561;28;20220;-54
2022/01/06 04:53:52;;;;;;;2.97;1.70;;;;;16.70;100443.00;;;;2087346;28;20216;-54
2022/01/06 04:54:53;;;;;;;2.67;1.60;;;;;16.90;100441.00;;;;2087121;28;20695;-54
2022/01/06 04:55:54;;;;;;;3.43;2.00;;;;;16.90;100442.00;;;;2087417;28;20278;-53
2022/01/06 04:56:54;;;;;;;2.28;1.30;;;;;16.90;100447.00;;;;2087779;28;20221;-54
2022/01/06 04:57:55;;;;;;;3.13;1.60;;;;;16.90;100451.00;;;;2087895;28;20691;-54
2022/01/06 04:58:55;;;;;;;2.17;1.47;;;;;16.90;100444.00;;;;2087366;28;20709;-54
2022/01/06 04:59:55;;;;;;;2.63;1.63;;;;;16.90;100450.00;;;;2088131;28;20209;-54
2022/01/06 05:00:55;;;;;;;3.03;1.73;;;;;16.80;100447.00;;;;2087720;28;20208;-54
2022/01/06 05:01:56;;;;;;;3.37;1.87;;;;;16.90;100452.00;;;;2087991;28;20248;-54
2022/01/06 05:02:56;;;;;;;2.20;1.60;;;;;16.80;100441.00;;;;2084977;28;20209;-54
2022/01/06 05:03:56;;;;;;;2.03;1.53;;;;;16.80;100449.00;;;;2087351;28;20224;-54
2022/01/06 05:04:57;;;;;;;2.97;1.50;;;;;16.80;100463.00;;;;2087530;28;20236;-54
2022/01/06 05:05:57;;;;;;;2.57;1.90;;;;;16.90;100464.00;;;;2087740;28;20228;-54
2022/01/06 05:06:57;;;;;;;5.60;1.70;;;;;16.80;100460.00;;;;2087596;28;20259;-54
2022/01/06 05:07:58;;;;;;;2.90;1.73;;;;;16.90;100461.00;;;;2085372;28;20229;-53
2022/01/06 05:08:58;;;;;;;3.10;1.60;;;;;16.90;100461.00;;;;2087931;28;20217;-53
2022/01/06 05:09:58;;;;;;;3.13;1.50;;;;;16.90;100461.00;;;;2089090;28;20217;-54
2022/01/06 05:10:59;;;;;;;3.33;1.70;;;;;16.90;100452.00;;;;2087858;28;20615;-54
2022/01/06 05:11:59;;;;;;;2.23;1.30;;;;;16.90;100455.00;;;;2088268;28;20571;-54
2022/01/06 05:12:59;;;;;;;3.50;1.73;;;;;16.90;100464.00;;;;2086176;28;20215;-54
2022/01/06 05:14:00;;;;;;;2.60;1.50;;;;;16.90;100460.00;;;;2092077;28;20209;-54